createdAt,value
2017-05-21T00:00:17.093Z,1015.15
2017-05-21T00:01:30.975Z,1015.12
2017-05-21T00:02:44.894Z,1015.18
2017-05-21T00:03:58.774Z,1015.15
2017-05-21T00:05:12.402Z,1015.16
2017-05-21T00:06:25.947Z,1015.14
2017-05-21T00:07:39.685Z,1015.17
2017-05-21T00:08:53.746Z,1015.15
2017-05-21T00:10:07.545Z,1015.18
2017-05-21T00:11:21.052Z,1015.19
2017-05-21T00:12:34.662Z,1015.24
2017-05-21T00:13:48.560Z,1015.26
2017-05-21T00:15:02.204Z,1015.22
2017-05-21T00:16:16.039Z,1015.2
2017-05-21T00:17:29.633Z,1015.25
2017-05-21T00:18:43.128Z,1015.22
2017-05-21T00:19:56.691Z,1015.25
2017-05-21T00:21:10.217Z,1015.26
2017-05-21T00:22:24.046Z,1015.26
2017-05-21T00:23:37.612Z,1015.32
2017-05-21T00:24:51.238Z,1015.32
2017-05-21T00:26:04.803Z,1015.35
2017-05-21T00:27:18.339Z,1015.34
2017-05-21T00:28:32.181Z,1015.33
2017-05-21T00:29:45.692Z,1015.34
2017-05-21T00:30:59.343Z,1015.38
2017-05-21T00:32:12.925Z,1015.4
2017-05-21T00:33:26.499Z,1015.42
2017-05-21T00:34:40.700Z,1015.44
2017-05-21T00:35:54.348Z,1015.37
2017-05-21T00:37:07.897Z,1015.42
2017-05-21T00:38:21.751Z,1015.39
2017-05-21T00:39:35.336Z,1015.39
2017-05-21T00:40:49.241Z,1015.4
2017-05-21T00:42:03.022Z,1015.41
2017-05-21T00:43:16.597Z,1015.4
2017-05-21T00:44:30.170Z,1015.4
2017-05-21T00:45:43.710Z,1015.4
2017-05-21T00:46:57.587Z,1015.41
2017-05-21T00:48:11.100Z,1015.37
2017-05-21T00:49:24.703Z,1015.38
2017-05-21T00:50:38.279Z,1015.36
2017-05-21T00:51:51.839Z,1015.4
2017-05-21T00:53:05.662Z,1015.44
2017-05-21T00:54:19.206Z,1015.39
2017-05-21T00:55:32.743Z,1015.41
2017-05-21T00:56:46.302Z,1015.41
2017-05-21T00:58:01.039Z,1015.42
2017-05-21T00:59:14.879Z,1015.4
2017-05-21T01:00:28.792Z,1015.45
2017-05-21T01:01:42.362Z,1015.43
2017-05-21T01:02:55.974Z,1015.44
2017-05-21T01:04:09.503Z,1015.4
2017-05-21T01:05:23.439Z,1015.41
2017-05-21T01:06:37.008Z,1015.4
2017-05-21T01:07:50.956Z,1015.43
2017-05-21T01:09:04.514Z,1015.43
2017-05-21T01:10:18.073Z,1015.41
2017-05-21T01:11:32.025Z,1015.46
2017-05-21T01:12:45.679Z,1015.47
2017-05-21T01:13:59.523Z,1015.44
2017-05-21T01:15:13.124Z,1015.47
2017-05-21T01:16:26.661Z,1015.5
2017-05-21T01:17:40.525Z,1015.48
2017-05-21T01:18:54.154Z,1015.46
2017-05-21T01:20:07.748Z,1015.46
2017-05-21T01:21:21.283Z,1015.47
2017-05-21T01:22:34.829Z,1015.41
2017-05-21T01:23:48.727Z,1015.48
2017-05-21T01:25:03.467Z,1015.47
2017-05-21T01:26:17.029Z,1015.49
2017-05-21T01:27:30.529Z,1015.48
2017-05-21T01:28:44.176Z,1015.46
2017-05-21T01:29:58.055Z,1015.48
2017-05-21T01:31:11.692Z,1015.47
2017-05-21T01:32:25.237Z,1015.47
2017-05-21T01:33:38.774Z,1015.48
2017-05-21T01:34:52.359Z,1015.49
2017-05-21T01:36:06.184Z,1015.46
2017-05-21T01:37:19.720Z,1015.5
2017-05-21T01:38:33.536Z,1015.5
2017-05-21T01:39:47.095Z,1015.55
2017-05-21T01:41:00.603Z,1015.5
2017-05-21T01:42:14.413Z,1015.52
2017-05-21T01:43:27.955Z,1015.52
2017-05-21T01:44:41.713Z,1015.54
2017-05-21T01:45:55.336Z,1015.57
2017-05-21T01:47:08.910Z,1015.56
2017-05-21T01:48:23.067Z,1015.57
2017-05-21T01:49:36.648Z,1015.58
2017-05-21T01:50:50.621Z,1015.58
2017-05-21T01:52:04.227Z,1015.56
2017-05-21T01:53:17.791Z,1015.56
2017-05-21T01:54:32.012Z,1015.58
2017-05-21T01:55:45.629Z,1015.57
2017-05-21T01:56:59.164Z,1015.57
2017-05-21T01:58:12.733Z,1015.53
2017-05-21T01:59:26.282Z,1015.57
2017-05-21T02:00:40.202Z,1015.54
2017-05-21T02:01:53.750Z,1015.52
2017-05-21T02:03:07.319Z,1015.55
2017-05-21T02:04:20.897Z,1015.5
2017-05-21T02:05:34.932Z,1015.47
2017-05-21T02:06:48.815Z,1015.5
2017-05-21T02:08:02.698Z,1015.5
2017-05-21T02:09:16.285Z,1015.49
2017-05-21T02:10:29.838Z,1015.47
2017-05-21T02:11:43.383Z,1015.5
2017-05-21T02:12:57.351Z,1015.51
2017-05-21T02:14:11.017Z,1015.48
2017-05-21T02:15:24.532Z,1015.52
2017-05-21T02:16:38.125Z,1015.56
2017-05-21T02:17:51.719Z,1015.53
2017-05-21T02:19:05.665Z,1015.56
2017-05-21T02:20:19.225Z,1015.53
2017-05-21T02:21:32.764Z,1015.55
2017-05-21T02:22:46.264Z,1015.54
2017-05-21T02:23:59.792Z,1015.58
2017-05-21T02:25:13.675Z,1015.56
2017-05-21T02:26:27.339Z,1015.58
2017-05-21T02:27:40.945Z,1015.6
2017-05-21T02:28:54.489Z,1015.61
2017-05-21T02:30:08.204Z,1015.64
2017-05-21T02:31:22.081Z,1015.6
2017-05-21T02:32:35.604Z,1015.58
2017-05-21T02:33:49.113Z,1015.62
2017-05-21T02:35:02.840Z,1015.59
2017-05-21T02:36:16.375Z,1015.64
2017-05-21T02:37:30.223Z,1015.6
2017-05-21T02:38:43.763Z,1015.59
2017-05-21T02:39:57.327Z,1015.62
2017-05-21T02:41:10.973Z,1015.57
2017-05-21T02:42:24.501Z,1015.57
2017-05-21T02:43:38.443Z,1015.56
2017-05-21T02:44:51.965Z,1015.55
2017-05-21T02:46:05.567Z,1015.57
2017-05-21T02:47:19.095Z,1015.57
2017-05-21T02:48:32.626Z,1015.54
2017-05-21T02:49:46.496Z,1015.58
2017-05-21T02:51:00.069Z,1015.57
2017-05-21T02:52:13.618Z,1015.55
2017-05-21T02:53:27.127Z,1015.57
2017-05-21T02:54:40.665Z,1015.53
2017-05-21T02:55:54.569Z,1015.57
2017-05-21T02:57:08.237Z,1015.56
2017-05-21T02:58:21.748Z,1015.58
2017-05-21T02:59:35.270Z,1015.58
2017-05-21T03:00:48.807Z,1015.57
2017-05-21T03:02:02.686Z,1015.57
2017-05-21T03:03:16.558Z,1015.55
2017-05-21T03:04:30.094Z,1015.55
2017-05-21T03:05:43.661Z,1015.5
2017-05-21T03:06:57.217Z,1015.53
2017-05-21T03:08:11.164Z,1015.53
2017-05-21T03:09:24.680Z,1015.56
2017-05-21T03:10:38.296Z,1015.52
2017-05-21T03:11:51.950Z,1015.55
2017-05-21T03:13:05.534Z,1015.54
2017-05-21T03:14:19.829Z,1015.53
2017-05-21T03:15:33.381Z,1015.53
2017-05-21T03:16:46.949Z,1015.55
2017-05-21T03:18:00.586Z,1015.52
2017-05-21T03:19:14.175Z,1015.54
2017-05-21T03:20:28.324Z,1015.58
2017-05-21T03:21:41.897Z,1015.55
2017-05-21T03:22:55.417Z,1015.54
2017-05-21T03:24:09.031Z,1015.58
2017-05-21T03:25:22.982Z,1015.59
2017-05-21T03:26:36.876Z,1015.55
2017-05-21T03:27:50.376Z,1015.59
2017-05-21T03:29:03.950Z,1015.59
2017-05-21T03:30:17.462Z,1015.57
2017-05-21T03:31:31.476Z,1015.6
2017-05-21T03:32:45.515Z,1015.63
2017-05-21T03:33:59.023Z,1015.63
2017-05-21T03:35:12.622Z,1015.65
2017-05-21T03:36:26.127Z,1015.64
2017-05-21T03:37:39.733Z,1015.64
2017-05-21T03:38:53.593Z,1015.66
2017-05-21T03:40:07.457Z,1015.67
2017-05-21T03:41:20.951Z,1015.7
2017-05-21T03:42:34.510Z,1015.66
2017-05-21T03:43:48.037Z,1015.65
2017-05-21T03:45:02.248Z,1015.75
2017-05-21T03:46:15.804Z,1015.71
2017-05-21T03:47:29.405Z,1015.73
2017-05-21T03:48:43.057Z,1015.76
2017-05-21T03:49:57.062Z,1015.75
2017-05-21T03:51:10.991Z,1015.77
2017-05-21T03:52:24.543Z,1015.77
2017-05-21T03:53:38.114Z,1015.83
2017-05-21T03:54:51.739Z,1015.84
2017-05-21T03:56:05.485Z,1015.84
2017-05-21T03:57:19.343Z,1015.85
2017-05-21T03:58:32.917Z,1015.88
2017-05-21T03:59:46.473Z,1015.85
2017-05-21T04:01:00.134Z,1015.89
2017-05-21T04:02:13.646Z,1015.9
2017-05-21T04:03:27.504Z,1015.89
2017-05-21T04:04:41.054Z,1015.94
2017-05-21T04:05:54.591Z,1015.96
2017-05-21T04:07:08.181Z,1015.98
2017-05-21T04:08:21.765Z,1016.01
2017-05-21T04:09:35.635Z,1016.01
2017-05-21T04:10:49.165Z,1016
2017-05-21T04:12:03.073Z,1016.03
2017-05-21T04:13:16.648Z,1016.02
2017-05-21T04:14:30.277Z,1016.06
2017-05-21T04:15:44.106Z,1016.04
2017-05-21T04:16:58.059Z,1016.07
2017-05-21T04:18:11.610Z,1016.11
2017-05-21T04:19:25.216Z,1016.14
2017-05-21T04:20:38.860Z,1016.08
2017-05-21T04:21:53.027Z,1016.07
2017-05-21T04:23:07.083Z,1016.14
2017-05-21T04:24:20.681Z,1016.19
2017-05-21T04:25:34.360Z,1016.19
2017-05-21T04:26:47.949Z,1016.23
2017-05-21T04:28:01.902Z,1016.23
2017-05-21T04:29:15.529Z,1016.19
2017-05-21T04:30:29.112Z,1016.16
2017-05-21T04:31:42.741Z,1016.18
2017-05-21T04:32:56.372Z,1016.24
2017-05-21T04:34:10.226Z,1016.22
2017-05-21T04:35:23.786Z,1016.22
2017-05-21T04:36:37.523Z,1016.29
2017-05-21T04:37:51.223Z,1016.31
2017-05-21T04:39:04.819Z,1016.23
2017-05-21T04:40:18.733Z,1016.26
2017-05-21T04:41:32.313Z,1016.23
2017-05-21T04:42:45.931Z,1016.24
2017-05-21T04:43:59.650Z,1016.26
2017-05-21T04:45:13.213Z,1016.27
2017-05-21T04:46:27.156Z,1016.26
2017-05-21T04:47:40.751Z,1016.29
2017-05-21T04:48:54.389Z,1016.3
2017-05-21T04:50:07.975Z,1016.3
2017-05-21T04:51:21.669Z,1016.32
2017-05-21T04:52:35.556Z,1016.35
2017-05-21T04:53:49.735Z,1016.34
2017-05-21T04:55:03.329Z,1016.33
2017-05-21T04:56:16.881Z,1016.35
2017-05-21T04:57:30.491Z,1016.32
2017-05-21T04:58:44.369Z,1016.28
2017-05-21T04:59:58.182Z,1016.31
2017-05-21T05:01:11.903Z,1016.28
2017-05-21T05:02:25.529Z,1016.29
2017-05-21T05:03:39.089Z,1016.32
2017-05-21T05:04:53.043Z,1016.34
2017-05-21T05:06:06.770Z,1016.36
2017-05-21T05:07:20.545Z,1016.34
2017-05-21T05:08:34.096Z,1016.34
2017-05-21T05:09:47.817Z,1016.31
2017-05-21T05:11:01.753Z,1016.34
2017-05-21T05:12:15.298Z,1016.39
2017-05-21T05:13:28.868Z,1016.4
2017-05-21T05:14:42.429Z,1016.35
2017-05-21T05:15:56.055Z,1016.39
2017-05-21T05:17:10.058Z,1016.4
2017-05-21T05:18:23.622Z,1016.42
2017-05-21T05:19:37.220Z,1016.44
2017-05-21T05:20:50.829Z,1016.48
2017-05-21T05:22:04.391Z,1016.48
2017-05-21T05:23:18.359Z,1016.46
2017-05-21T05:24:31.901Z,1016.43
2017-05-21T05:25:45.426Z,1016.35
2017-05-21T05:26:59.098Z,1016.35
2017-05-21T05:28:15.689Z,1016.34
2017-05-21T05:29:29.605Z,1016.34
2017-05-21T05:30:43.144Z,1016.33
2017-05-21T05:31:57.402Z,1016.35
2017-05-21T05:33:10.954Z,1016.34
2017-05-21T05:34:24.549Z,1016.32
2017-05-21T05:35:38.413Z,1016.26
2017-05-21T05:36:52.035Z,1016.3
2017-05-21T05:38:05.564Z,1016.33
2017-05-21T05:39:19.120Z,1016.3
2017-05-21T05:40:32.651Z,1016.32
2017-05-21T05:41:46.508Z,1016.33
2017-05-21T05:43:00.187Z,1016.34
2017-05-21T05:44:13.750Z,1016.33
2017-05-21T05:45:27.296Z,1016.29
2017-05-21T05:46:41.220Z,1016.3
2017-05-21T05:47:55.178Z,1016.32
2017-05-21T05:49:08.979Z,1016.28
2017-05-21T05:50:22.885Z,1016.27
2017-05-21T05:51:36.427Z,1016.32
2017-05-21T05:52:50.364Z,1016.28
2017-05-21T05:54:04.275Z,1016.33
2017-05-21T05:55:17.886Z,1016.32
2017-05-21T05:56:31.557Z,1016.31
2017-05-21T05:57:45.385Z,1016.36
2017-05-21T05:58:59.210Z,1016.38
2017-05-21T06:00:13.062Z,1016.37
2017-05-21T06:01:26.609Z,1016.35
2017-05-21T06:02:40.183Z,1016.38
2017-05-21T06:03:53.843Z,1016.36
2017-05-21T06:05:07.404Z,1016.35
2017-05-21T06:06:21.270Z,1016.41
2017-05-21T06:07:34.832Z,1016.4
2017-05-21T06:08:48.445Z,1016.39
2017-05-21T06:10:02.157Z,1016.4
2017-05-21T06:11:15.867Z,1016.39
2017-05-21T06:12:29.741Z,1016.43
2017-05-21T06:13:43.371Z,1016.42
2017-05-21T06:14:56.935Z,1016.48
2017-05-21T06:16:10.543Z,1016.48
2017-05-21T06:17:24.299Z,1016.41
2017-05-21T06:18:38.232Z,1016.44
2017-05-21T06:19:51.785Z,1016.39
2017-05-21T06:21:05.419Z,1016.42
2017-05-21T06:22:18.977Z,1016.43
2017-05-21T06:23:32.586Z,1016.43
2017-05-21T06:24:46.865Z,1016.42
2017-05-21T06:26:00.495Z,1016.44
2017-05-21T06:27:14.012Z,1016.43
2017-05-21T06:28:27.566Z,1016.47
2017-05-21T06:29:41.121Z,1016.48
2017-05-21T06:30:55.145Z,1016.5
2017-05-21T06:32:08.718Z,1016.52
2017-05-21T06:33:22.295Z,1016.51
2017-05-21T06:34:36.162Z,1016.49
2017-05-21T06:35:49.758Z,1016.51
2017-05-21T06:37:03.756Z,1016.49
2017-05-21T06:38:17.343Z,1016.51
2017-05-21T06:39:31.530Z,1016.53
2017-05-21T06:40:45.060Z,1016.53
2017-05-21T06:41:58.610Z,1016.5
2017-05-21T06:43:12.489Z,1016.49
2017-05-21T06:44:26.017Z,1016.56
2017-05-21T06:45:39.623Z,1016.52
2017-05-21T06:46:53.477Z,1016.49
2017-05-21T06:48:07.110Z,1016.52
2017-05-21T06:49:20.991Z,1016.53
2017-05-21T06:50:34.606Z,1016.56
2017-05-21T06:51:48.278Z,1016.54
2017-05-21T06:53:01.957Z,1016.48
2017-05-21T06:54:16.008Z,1016.55
2017-05-21T06:55:29.878Z,1016.55
2017-05-21T06:56:43.519Z,1016.54
2017-05-21T06:57:57.154Z,1016.55
2017-05-21T06:59:11.126Z,1016.58
2017-05-21T07:00:24.730Z,1016.56
2017-05-21T07:01:38.709Z,1016.58
2017-05-21T07:02:52.388Z,1016.56
2017-05-21T07:04:05.996Z,1016.58
2017-05-21T07:05:19.570Z,1016.58
2017-05-21T07:06:33.202Z,1016.56
2017-05-21T07:07:47.188Z,1016.59
2017-05-21T07:09:00.799Z,1016.57
2017-05-21T07:10:14.388Z,1016.6
2017-05-21T07:11:27.946Z,1016.61
2017-05-21T07:12:41.570Z,1016.61
2017-05-21T07:13:55.507Z,1016.65
2017-05-21T07:15:09.149Z,1016.67
2017-05-21T07:16:22.692Z,1016.64
2017-05-21T07:17:37.767Z,1016.65
2017-05-21T07:19:07.195Z,1016.61
2017-05-21T07:20:22.949Z,1016.6
2017-05-21T07:21:36.503Z,1016.58
2017-05-21T07:22:50.118Z,1016.55
2017-05-21T07:24:03.729Z,1016.57
2017-05-21T07:25:17.328Z,1016.57
2017-05-21T07:26:31.164Z,1016.6
2017-05-21T07:27:45.152Z,1016.53
2017-05-21T07:28:59.320Z,1016.53
2017-05-21T07:30:15.662Z,1016.52
2017-05-21T07:31:38.872Z,1016.52
2017-05-21T07:33:01.748Z,1016.5
2017-05-21T07:34:26.003Z,1016.48
2017-05-21T07:35:39.589Z,1016.49
2017-05-21T07:37:02.692Z,1016.48
2017-05-21T07:38:16.968Z,1016.52
2017-05-21T07:39:30.626Z,1016.52
2017-05-21T07:40:44.141Z,1016.51
2017-05-21T07:41:57.762Z,1016.49
2017-05-21T07:43:11.346Z,1016.5
2017-05-21T07:44:25.432Z,1016.5
2017-05-21T07:45:39.101Z,1016.49
2017-05-21T07:46:52.678Z,1016.51
2017-05-21T07:48:06.414Z,1016.5
2017-05-21T07:49:19.995Z,1016.45
2017-05-21T07:50:33.925Z,1016.43
2017-05-21T07:51:47.463Z,1016.44
2017-05-21T07:53:01.023Z,1016.42
2017-05-21T07:54:14.581Z,1016.41
2017-05-21T07:55:28.233Z,1016.41
2017-05-21T07:56:42.103Z,1016.39
2017-05-21T07:57:55.722Z,1016.39
2017-05-21T07:59:09.493Z,1016.41
2017-05-21T08:00:23.090Z,1016.41
2017-05-21T08:01:37.030Z,1016.4
2017-05-21T08:02:51.286Z,1016.37
2017-05-21T08:04:06.270Z,1016.4
2017-05-21T08:05:20.356Z,1016.41
2017-05-21T08:06:34.406Z,1016.36
2017-05-21T08:07:52.993Z,1016.35
2017-05-21T08:09:07.347Z,1016.37
2017-05-21T08:10:21.047Z,1016.39
2017-05-21T08:11:35.099Z,1016.38
2017-05-21T08:12:48.882Z,1016.35
2017-05-21T08:14:03.115Z,1016.31
2017-05-21T08:15:17.486Z,1016.26
2017-05-21T08:16:39.608Z,1016.27
2017-05-21T08:18:02.768Z,1016.28
2017-05-21T08:19:20.252Z,1016.24
2017-05-21T08:20:38.480Z,1016.25
2017-05-21T08:21:52.341Z,1016.23
2017-05-21T08:23:06.445Z,1016.22
2017-05-21T08:24:20.260Z,1016.23
2017-05-21T08:25:33.833Z,1016.18
2017-05-21T08:26:48.641Z,1016.22
2017-05-21T08:28:04.988Z,1016.22
2017-05-21T08:29:18.780Z,1016.22
2017-05-21T08:30:39.824Z,1016.24
2017-05-21T08:31:56.282Z,1016.21
2017-05-21T08:34:38.722Z,1016.18
2017-05-21T08:35:52.621Z,1016.16
2017-05-21T08:37:06.618Z,1016.15
2017-05-21T08:38:20.474Z,1016.17
2017-05-21T08:39:34.546Z,1016.15
2017-05-21T08:40:48.133Z,1016.16
2017-05-21T08:42:02.021Z,1016.11
2017-05-21T08:43:15.937Z,1016.19
2017-05-21T08:44:30.019Z,1016.19
2017-05-21T08:45:44.519Z,1016.15
2017-05-21T08:46:58.246Z,1016.17
2017-05-21T08:48:13.420Z,1016.21
2017-05-21T08:49:27.374Z,1016.2
2017-05-21T08:50:41.848Z,1016.21
2017-05-21T08:51:56.093Z,1016.18
2017-05-21T08:53:09.756Z,1016.14
2017-05-21T08:54:23.460Z,1016.15
2017-05-21T08:55:37.295Z,1016.17
2017-05-21T08:56:51.284Z,1016.14
2017-05-21T08:58:05.185Z,1016.22
2017-05-21T08:59:18.820Z,1016.2
2017-05-21T09:00:33.260Z,1016.2
2017-05-21T09:01:46.864Z,1016.14
2017-05-21T09:03:00.565Z,1016.12
2017-05-21T09:04:14.510Z,1016.17
2017-05-21T09:05:28.352Z,1016.21
2017-05-21T09:06:41.970Z,1016.22
2017-05-21T09:07:55.633Z,1016.2
2017-05-21T09:09:09.565Z,1016.15
2017-05-21T09:10:23.437Z,1016.21
2017-05-21T09:11:37.255Z,1016.14
2017-05-21T09:12:51.011Z,1016.22
2017-05-21T09:14:04.592Z,1016.17
2017-05-21T09:15:18.206Z,1016.21
2017-05-21T09:16:32.113Z,1016.18
2017-05-21T09:17:46.108Z,1016.15
2017-05-21T09:18:59.916Z,1016.12
2017-05-21T09:20:13.484Z,1016.13
2017-05-21T09:21:27.038Z,1016.12
2017-05-21T09:22:40.924Z,1016.11
2017-05-21T09:23:54.525Z,1016.09
2017-05-21T09:25:08.275Z,1016.06
2017-05-21T09:26:21.879Z,1016.08
2017-05-21T09:27:35.449Z,1016.1
2017-05-21T09:28:49.356Z,1016.12
2017-05-21T09:30:03.012Z,1016.13
2017-05-21T09:31:16.648Z,1016.1
2017-05-21T09:32:30.247Z,1016.14
2017-05-21T09:33:43.813Z,1016.12
2017-05-21T09:34:57.678Z,1016.07
2017-05-21T09:36:11.308Z,1016.05
2017-05-21T09:37:24.926Z,1016.04
2017-05-21T09:38:38.447Z,1016.04
2017-05-21T09:39:51.993Z,1016.06
2017-05-21T09:41:05.949Z,1016.09
2017-05-21T09:42:19.855Z,1016.06
2017-05-21T09:43:33.723Z,1016.05
2017-05-21T09:44:47.487Z,1016.02
2017-05-21T09:46:01.094Z,1015.97
2017-05-21T09:47:15.051Z,1016.01
2017-05-21T09:48:28.640Z,1016.01
2017-05-21T09:49:42.266Z,1016.01
2017-05-21T09:50:55.853Z,1016.03
2017-05-21T09:52:09.499Z,1016.01
2017-05-21T09:53:23.385Z,1015.99
2017-05-21T09:54:37.355Z,1015.99
2017-05-21T09:55:50.931Z,1015.95
2017-05-21T09:57:04.885Z,1016
2017-05-21T09:58:18.610Z,1016
2017-05-21T09:59:32.450Z,1015.91
2017-05-21T10:00:46.455Z,1015.98
2017-05-21T10:02:00.031Z,1016.04
2017-05-21T10:03:13.679Z,1016.02
2017-05-21T10:04:27.245Z,1016.02
2017-05-21T10:05:41.152Z,1016
2017-05-21T10:06:54.808Z,1015.96
2017-05-21T10:08:08.373Z,1015.97
2017-05-21T10:09:21.933Z,1015.95
2017-05-21T10:10:35.841Z,1015.89
2017-05-21T10:11:49.778Z,1015.86
2017-05-21T10:13:03.452Z,1015.85
2017-05-21T10:14:17.008Z,1015.93
2017-05-21T10:15:30.676Z,1015.86
2017-05-21T10:16:44.228Z,1015.81
2017-05-21T10:17:58.188Z,1015.75
2017-05-21T10:19:12.392Z,1015.81
2017-05-21T10:20:26.045Z,1015.86
2017-05-21T10:21:41.615Z,1015.82
2017-05-21T10:22:55.172Z,1015.82
2017-05-21T10:24:09.085Z,1015.78
2017-05-21T10:25:22.736Z,1015.72
2017-05-21T10:26:36.455Z,1015.74
2017-05-21T10:27:50.124Z,1015.73
2017-05-21T10:29:03.879Z,1015.69
2017-05-21T10:30:17.815Z,1015.72
2017-05-21T10:31:31.640Z,1015.72
2017-05-21T10:32:45.312Z,1015.69
2017-05-21T10:33:58.982Z,1015.66
2017-05-21T10:35:12.739Z,1015.65
2017-05-21T10:36:26.755Z,1015.69
2017-05-21T10:37:40.820Z,1015.74
2017-05-21T10:38:54.446Z,1015.65
2017-05-21T10:40:08.485Z,1015.57
2017-05-21T10:41:22.143Z,1015.57
2017-05-21T10:42:36.058Z,1015.54
2017-05-21T10:43:50.358Z,1015.52
2017-05-21T10:45:04.431Z,1015.52
2017-05-21T10:46:18.149Z,1015.5
2017-05-21T10:47:31.770Z,1015.46
2017-05-21T10:48:46.358Z,1015.48
2017-05-21T10:50:00.068Z,1015.4
2017-05-21T10:51:14.069Z,1015.36
2017-05-21T10:52:27.627Z,1015.3
2017-05-21T10:53:41.313Z,1015.34
2017-05-21T10:54:55.269Z,1015.37
2017-05-21T10:56:08.957Z,1015.31
2017-05-21T10:57:22.564Z,1015.28
2017-05-21T10:58:37.133Z,1015.32
2017-05-21T10:59:50.801Z,1015.3
2017-05-21T11:01:04.983Z,1015.32
2017-05-21T11:02:18.687Z,1015.26
2017-05-21T11:03:32.379Z,1015.28
2017-05-21T11:04:46.335Z,1015.12
2017-05-21T11:05:59.969Z,1015.18
2017-05-21T11:07:14.141Z,1015.19
2017-05-21T11:08:27.836Z,1015.14
2017-05-21T11:09:42.035Z,1015.13
2017-05-21T11:10:55.788Z,1015.13
2017-05-21T11:12:09.792Z,1015.13
2017-05-21T11:13:24.036Z,1015.14
2017-05-21T11:14:37.728Z,1015.12
2017-05-21T11:15:51.318Z,1015.14
2017-05-21T11:17:06.245Z,1015.11
2017-05-21T11:18:19.912Z,1015.14
2017-05-21T11:19:33.838Z,1015.11
2017-05-21T11:20:47.441Z,1015.04
2017-05-21T11:22:01.219Z,1014.99
2017-05-21T11:23:15.125Z,1014.96
2017-05-21T11:24:28.717Z,1014.94
2017-05-21T11:25:42.556Z,1014.93
2017-05-21T11:26:56.202Z,1014.95
2017-05-21T11:28:10.032Z,1014.96
2017-05-21T11:29:23.758Z,1014.92
2017-05-21T11:30:37.492Z,1014.86
2017-05-21T11:31:51.476Z,1014.86
2017-05-21T11:33:05.373Z,1014.84
2017-05-21T11:34:19.077Z,1014.81
2017-05-21T11:35:32.785Z,1014.92
2017-05-21T11:36:46.569Z,1014.82
2017-05-21T11:38:00.447Z,1014.82
2017-05-21T11:39:14.368Z,1014.79
2017-05-21T11:40:28.007Z,1014.79
2017-05-21T11:41:41.653Z,1014.79
2017-05-21T11:42:55.281Z,1014.81
2017-05-21T11:44:09.398Z,1014.78
2017-05-21T11:45:23.206Z,1014.77
2017-05-21T11:46:36.813Z,1014.77
2017-05-21T11:47:50.438Z,1014.73
2017-05-21T11:49:04.153Z,1014.74
2017-05-21T11:50:18.086Z,1014.75
2017-05-21T11:51:32.956Z,1014.79
2017-05-21T11:52:46.712Z,1014.79
2017-05-21T11:54:00.426Z,1014.79
2017-05-21T11:55:14.167Z,1014.82
2017-05-21T11:56:28.250Z,1014.81
2017-05-21T11:57:41.950Z,1014.81
2017-05-21T11:58:55.594Z,1014.82
2017-05-21T12:00:09.308Z,1014.75
2017-05-21T12:01:22.966Z,1014.76
2017-05-21T12:02:37.042Z,1014.77
2017-05-21T12:03:50.663Z,1014.77
2017-05-21T12:05:04.540Z,1014.8
2017-05-21T12:06:18.295Z,1014.74
2017-05-21T12:07:31.981Z,1014.76
2017-05-21T12:08:45.963Z,1014.7
2017-05-21T12:09:59.615Z,1014.68
2017-05-21T12:11:13.312Z,1014.6
2017-05-21T12:12:26.956Z,1014.6
2017-05-21T12:13:40.801Z,1014.59
2017-05-21T12:14:54.886Z,1014.59
2017-05-21T12:16:08.590Z,1014.59
2017-05-21T12:17:22.232Z,1014.59
2017-05-21T12:18:35.988Z,1014.6
2017-05-21T12:19:49.984Z,1014.57
2017-05-21T12:21:03.959Z,1014.53
2017-05-21T12:22:17.636Z,1014.48
2017-05-21T12:23:31.400Z,1014.52
2017-05-21T12:24:45.113Z,1014.49
2017-05-21T12:25:59.096Z,1014.49
2017-05-21T12:27:13.121Z,1014.43
2017-05-21T12:28:27.114Z,1014.45
2017-05-21T12:29:40.700Z,1014.41
2017-05-21T12:30:54.774Z,1014.42
2017-05-21T12:32:09.615Z,1014.48
2017-05-21T12:33:23.675Z,1014.45
2017-05-21T12:34:37.311Z,1014.42
2017-05-21T12:35:51.019Z,1014.46
2017-05-21T12:37:04.745Z,1014.41
2017-05-21T12:38:18.384Z,1014.43
2017-05-21T12:39:32.322Z,1014.35
2017-05-21T12:40:46.040Z,1014.34
2017-05-21T12:41:59.609Z,1014.32
2017-05-21T12:43:13.215Z,1014.26
2017-05-21T12:44:27.023Z,1014.25
2017-05-21T12:45:40.907Z,1014.2
2017-05-21T12:46:54.558Z,1014.18
2017-05-21T12:48:08.165Z,1014.17
2017-05-21T12:49:21.789Z,1014.18
2017-05-21T12:50:35.390Z,1014.16
2017-05-21T12:51:49.572Z,1014.18
2017-05-21T12:53:03.176Z,1014.22
2017-05-21T12:54:16.763Z,1014.17
2017-05-21T12:55:30.393Z,1014.17
2017-05-21T12:56:44.077Z,1014.12
2017-05-21T12:57:57.948Z,1014.14
2017-05-21T12:59:11.510Z,1014.11
2017-05-21T13:00:25.199Z,1014.07
2017-05-21T13:01:38.813Z,1014.06
2017-05-21T13:02:52.531Z,1014.08
2017-05-21T13:04:07.039Z,1014.07
2017-05-21T13:05:20.572Z,1014.04
2017-05-21T13:06:34.138Z,1014.03
2017-05-21T13:07:47.730Z,1014.04
2017-05-21T13:09:01.472Z,1013.99
2017-05-21T13:10:15.441Z,1014.04
2017-05-21T13:11:29.041Z,1014.04
2017-05-21T13:12:42.766Z,1013.98
2017-05-21T13:13:56.362Z,1013.93
2017-05-21T13:15:10.017Z,1013.95
2017-05-21T13:16:23.913Z,1013.98
2017-05-21T13:17:37.549Z,1013.95
2017-05-21T13:18:51.292Z,1013.96
2017-05-21T13:20:04.850Z,1013.95
2017-05-21T13:21:18.423Z,1013.92
2017-05-21T13:22:32.529Z,1013.92
2017-05-21T13:23:46.205Z,1013.89
2017-05-21T13:24:59.839Z,1013.86
2017-05-21T13:26:13.808Z,1013.9
2017-05-21T13:27:27.472Z,1013.82
2017-05-21T13:28:41.468Z,1013.87
2017-05-21T13:29:55.450Z,1013.83
2017-05-21T13:31:09.144Z,1013.8
2017-05-21T13:32:22.711Z,1013.75
2017-05-21T13:33:36.345Z,1013.77
2017-05-21T13:34:50.308Z,1013.73
2017-05-21T13:36:04.161Z,1013.76
2017-05-21T13:37:18.029Z,1013.74
2017-05-21T13:38:31.657Z,1013.75
2017-05-21T13:39:45.514Z,1013.73
2017-05-21T13:40:59.710Z,1013.71
2017-05-21T13:42:13.349Z,1013.66
2017-05-21T13:43:27.269Z,1013.76
2017-05-21T13:44:41.012Z,1013.72
2017-05-21T13:45:54.876Z,1013.64
2017-05-21T13:47:08.900Z,1013.59
2017-05-21T13:48:22.971Z,1013.53
2017-05-21T13:49:36.944Z,1013.53
2017-05-21T13:50:50.569Z,1013.55
2017-05-21T13:52:04.240Z,1013.58
2017-05-21T13:53:18.124Z,1013.53
2017-05-21T13:54:31.899Z,1013.49
2017-05-21T13:55:45.591Z,1013.52
2017-05-21T13:56:59.189Z,1013.51
2017-05-21T13:58:12.732Z,1013.48
2017-05-21T13:59:26.636Z,1013.5
2017-05-21T14:00:40.291Z,1013.47
2017-05-21T14:01:53.895Z,1013.45
2017-05-21T14:03:07.517Z,1013.44
2017-05-21T14:04:21.102Z,1013.44
2017-05-21T14:05:35.100Z,1013.45
2017-05-21T14:06:48.842Z,1013.45
2017-05-21T14:08:02.455Z,1013.43
2017-05-21T14:09:16.079Z,1013.39
2017-05-21T14:10:29.695Z,1013.38
2017-05-21T14:11:44.097Z,1013.36
2017-05-21T14:12:58.390Z,1013.32
2017-05-21T14:14:11.963Z,1013.29
2017-05-21T14:15:25.559Z,1013.28
2017-05-21T14:16:39.551Z,1013.33
2017-05-21T14:17:53.452Z,1013.29
2017-05-21T14:19:07.056Z,1013.26
2017-05-21T14:20:20.778Z,1013.25
2017-05-21T14:21:34.316Z,1013.25
2017-05-21T14:22:47.903Z,1013.23
2017-05-21T14:24:01.791Z,1013.17
2017-05-21T14:25:15.360Z,1013.18
2017-05-21T14:26:28.983Z,1013.17
2017-05-21T14:27:43.007Z,1013.15
2017-05-21T14:28:56.610Z,1013.1
2017-05-21T14:30:10.549Z,1013.1
2017-05-21T14:31:24.102Z,1013.07
2017-05-21T14:32:37.809Z,1013.06
2017-05-21T14:33:51.703Z,1013.05
2017-05-21T14:35:05.307Z,1013.06
2017-05-21T14:36:19.284Z,1013.07
2017-05-21T14:37:32.895Z,1013.07
2017-05-21T14:38:47.028Z,1013.02
2017-05-21T14:40:00.726Z,1013
2017-05-21T14:41:14.389Z,1013
2017-05-21T14:42:28.676Z,1013
2017-05-21T14:43:42.440Z,1012.99
2017-05-21T14:44:56.047Z,1013.01
2017-05-21T14:46:09.812Z,1013.01
2017-05-21T14:47:23.785Z,1012.97
2017-05-21T14:48:37.678Z,1012.99
2017-05-21T14:49:51.283Z,1012.97
2017-05-21T14:51:04.901Z,1012.99
2017-05-21T14:52:18.516Z,1012.96
2017-05-21T14:53:32.321Z,1012.93
2017-05-21T14:54:46.211Z,1012.88
2017-05-21T14:55:59.815Z,1012.86
2017-05-21T14:57:13.404Z,1012.92
2017-05-21T14:58:27.051Z,1012.87